createdAt,value
2023-04-08T00:01:48.320Z,10.70
2023-04-08T00:04:15.090Z,11.98
2023-04-08T00:06:42.019Z,11.05
2023-04-08T00:09:08.597Z,10.85
2023-04-08T00:11:35.948Z,12.00
2023-04-08T00:14:03.855Z,11.00
2023-04-08T00:16:30.809Z,10.82
2023-04-08T00:18:57.458Z,11.15
2023-04-08T00:21:24.084Z,11.23
2023-04-08T00:23:50.706Z,12.35
2023-04-08T00:26:17.306Z,11.07
2023-04-08T00:28:43.936Z,11.18
2023-04-08T00:31:10.556Z,12.23
2023-04-08T00:33:37.283Z,12.73
2023-04-08T00:36:04.081Z,13.27
2023-04-08T00:38:31.138Z,12.43
2023-04-08T00:40:58.387Z,12.73
2023-04-08T00:43:25.255Z,13.52
2023-04-08T00:45:51.963Z,12.38
2023-04-08T00:48:18.659Z,13.80
2023-04-08T00:50:47.028Z,15.38
2023-04-08T00:53:19.439Z,15.15
2023-04-08T00:55:46.205Z,16.15
2023-04-08T00:58:13.980Z,16.63
2023-04-08T01:00:52.912Z,16.67
2023-04-08T01:03:42.107Z,16.27
2023-04-08T01:06:11.534Z,16.63
2023-04-08T01:08:40.410Z,16.48
2023-04-08T01:11:11.355Z,17.13
2023-04-08T01:13:40.646Z,17.75
2023-04-08T01:16:11.002Z,18.55
2023-04-08T01:18:39.130Z,16.20
2023-04-08T01:21:06.751Z,16.00
2023-04-08T01:23:44.126Z,18.45
2023-04-08T01:26:13.462Z,17.02
2023-04-08T01:28:43.831Z,15.75
2023-04-08T01:31:11.082Z,17.30
2023-04-08T01:33:37.838Z,17.00
2023-04-08T01:36:06.265Z,16.25
2023-04-08T01:38:33.949Z,16.88
2023-04-08T01:41:00.705Z,16.02
2023-04-08T01:43:28.587Z,15.77
2023-04-08T01:45:58.486Z,15.73
2023-04-08T01:48:25.720Z,17.25
2023-04-08T01:50:53.735Z,17.88
2023-04-08T01:53:20.571Z,15.88
2023-04-08T01:55:51.635Z,16.45
2023-04-08T01:58:21.571Z,16.98
2023-04-08T02:00:49.572Z,16.73
2023-04-08T02:03:20.283Z,16.17
2023-04-08T02:05:47.205Z,16.20
2023-04-08T02:08:13.843Z,16.05
2023-04-08T02:10:40.782Z,16.67
2023-04-08T02:13:08.255Z,16.58
2023-04-08T02:15:38.143Z,15.52
2023-04-08T02:18:17.229Z,15.50
2023-04-08T02:20:47.889Z,16.42
2023-04-08T02:23:18.260Z,15.75
2023-04-08T02:25:47.830Z,15.23
2023-04-08T02:28:17.854Z,16.50
2023-04-08T02:30:50.068Z,16.48
2023-04-08T02:33:20.427Z,15.65
2023-04-08T02:35:48.588Z,16.10
2023-04-08T02:38:15.829Z,16.27
2023-04-08T02:40:42.469Z,16.50
2023-04-08T02:43:09.084Z,16.50
2023-04-08T02:45:40.936Z,16.55
2023-04-08T02:48:07.551Z,15.93
2023-04-08T02:50:34.274Z,16.30
2023-04-08T02:53:01.009Z,15.63
2023-04-08T02:55:27.599Z,15.90
2023-04-08T02:57:54.415Z,15.45
2023-04-08T03:00:21.072Z,16.80
2023-04-08T03:02:47.909Z,15.88
2023-04-08T03:05:16.398Z,17.65
2023-04-08T03:07:43.119Z,16.92
2023-04-08T03:10:09.954Z,16.52
2023-04-08T03:12:36.642Z,16.52
2023-04-08T03:15:03.812Z,16.45
2023-04-08T03:17:33.777Z,16.45
2023-04-08T03:20:01.562Z,16.67
2023-04-08T03:22:28.369Z,17.67
2023-04-08T03:24:54.983Z,17.58
2023-04-08T03:27:21.662Z,15.70
2023-04-08T03:29:48.458Z,17.05
2023-04-08T03:32:15.399Z,16.58
2023-04-08T03:34:42.071Z,17.23
2023-04-08T03:37:08.671Z,16.42
2023-04-08T03:39:35.324Z,15.60
2023-04-08T03:42:03.157Z,15.75
2023-04-08T03:44:29.749Z,15.95
2023-04-08T03:46:56.344Z,15.35
2023-04-08T03:49:23.010Z,16.25
2023-04-08T03:51:50.135Z,16.48
2023-04-08T03:54:16.724Z,16.98
2023-04-08T03:56:43.322Z,16.75
2023-04-08T03:59:09.923Z,15.90
2023-04-08T04:01:36.546Z,16.05
2023-04-08T04:04:03.402Z,16.95
2023-04-08T04:06:30.184Z,17.80
2023-04-08T04:08:56.820Z,16.17
2023-04-08T04:11:23.389Z,16.38
2023-04-08T04:13:50.063Z,17.77
2023-04-08T04:16:16.766Z,16.10
2023-04-08T04:18:43.540Z,16.35
2023-04-08T04:21:10.516Z,16.52
2023-04-08T04:23:37.103Z,16.73
2023-04-08T04:26:09.716Z,18.05
2023-04-08T04:28:36.623Z,18.10
2023-04-08T04:31:03.324Z,17.35
2023-04-08T04:33:30.404Z,17.60
2023-04-08T04:35:57.333Z,17.25
2023-04-08T04:38:23.971Z,17.27
2023-04-08T04:40:50.660Z,18.00
2023-04-08T04:43:17.213Z,18.13
2023-04-08T04:45:45.128Z,18.52
2023-04-08T04:48:11.962Z,19.35
2023-04-08T04:50:38.551Z,18.83
2023-04-08T04:53:05.529Z,17.27
2023-04-08T04:55:32.119Z,13.90
2023-04-08T04:57:58.686Z,13.38
2023-04-08T05:00:25.442Z,14.60
2023-04-08T05:02:52.116Z,14.25
2023-04-08T05:05:19.043Z,13.18
2023-04-08T05:07:45.967Z,13.05
2023-04-08T05:10:12.586Z,12.30
2023-04-08T05:12:39.333Z,10.73
2023-04-08T05:15:06.688Z,10.80
2023-04-08T05:17:33.448Z,9.82
2023-04-08T05:20:00.692Z,9.57
2023-04-08T05:22:27.317Z,8.95
2023-04-08T05:24:53.917Z,9.85
2023-04-08T05:27:21.702Z,8.45
2023-04-08T05:29:48.423Z,9.52
2023-04-08T05:32:16.966Z,9.45
2023-04-08T05:34:44.149Z,8.32
2023-04-08T05:37:11.022Z,9.20
2023-04-08T05:39:37.731Z,8.90
2023-04-08T05:42:04.399Z,7.90
2023-04-08T05:44:31.126Z,8.77
2023-04-08T05:46:58.363Z,7.90
2023-04-08T05:49:25.057Z,8.30
2023-04-08T05:51:51.708Z,7.35
2023-04-08T05:54:18.298Z,6.70
2023-04-08T05:56:46.393Z,6.43
2023-04-08T05:59:13.143Z,6.25
2023-04-08T06:01:39.946Z,5.70
2023-04-08T06:04:06.907Z,6.28
2023-04-08T06:06:33.749Z,6.43
2023-04-08T06:09:00.397Z,7.15
2023-04-08T06:11:27.005Z,6.03
2023-04-08T06:13:53.570Z,6.43
2023-04-08T06:16:21.357Z,5.43
2023-04-08T06:18:48.743Z,5.18
2023-04-08T06:21:15.900Z,4.70
2023-04-08T06:23:42.664Z,4.85
2023-04-08T06:26:09.293Z,5.07
2023-04-08T06:28:35.958Z,5.43
2023-04-08T06:31:02.645Z,5.20
2023-04-08T06:33:29.261Z,5.47
2023-04-08T06:36:06.274Z,5.65
2023-04-08T06:38:33.100Z,5.88
2023-04-08T06:41:06.886Z,5.60
2023-04-08T06:43:34.420Z,4.63
2023-04-08T06:46:01.346Z,4.95
2023-04-08T06:48:30.223Z,5.03
2023-04-08T06:50:57.738Z,5.05
2023-04-08T06:53:25.579Z,4.85
2023-04-08T06:55:52.489Z,4.55
2023-04-08T06:58:19.154Z,5.18
2023-04-08T07:00:45.826Z,4.55
2023-04-08T07:03:12.665Z,5.40
2023-04-08T07:05:39.478Z,5.15
2023-04-08T07:08:06.598Z,4.70
2023-04-08T07:10:34.454Z,5.07
2023-04-08T07:13:01.908Z,5.53
2023-04-08T07:15:28.559Z,4.90
2023-04-08T07:17:58.843Z,4.85
2023-04-08T07:20:26.455Z,4.82
2023-04-08T07:22:53.202Z,5.28
2023-04-08T07:25:19.831Z,5.70
2023-04-08T07:27:46.562Z,5.20
2023-04-08T07:30:13.446Z,6.57
2023-04-08T07:32:40.192Z,6.65
2023-04-08T07:35:07.227Z,6.97
2023-04-08T07:37:33.926Z,6.85
2023-04-08T07:40:00.875Z,7.93
2023-04-08T07:42:27.534Z,8.32
2023-04-08T07:44:54.274Z,8.13
2023-04-08T07:47:21.129Z,8.35
2023-04-08T07:49:48.446Z,8.35
2023-04-08T07:52:15.734Z,8.52
2023-04-08T07:54:42.426Z,9.90
2023-04-08T07:57:09.071Z,9.13
2023-04-08T07:59:36.210Z,9.02
2023-04-08T08:02:03.427Z,8.90
2023-04-08T08:04:30.357Z,11.23
2023-04-08T08:06:57.174Z,11.38
2023-04-08T08:09:24.024Z,11.85
2023-04-08T08:11:50.839Z,12.23
2023-04-08T08:14:17.543Z,12.52
2023-04-08T08:16:44.754Z,12.50
2023-04-08T08:19:12.459Z,11.88
2023-04-08T08:21:39.679Z,13.23
2023-04-08T08:24:07.017Z,12.02
2023-04-08T08:26:39.434Z,12.35
2023-04-08T08:29:08.918Z,12.23
2023-04-08T08:31:35.718Z,13.25
2023-04-08T08:34:02.894Z,12.35
2023-04-08T08:36:29.584Z,14.07
2023-04-08T08:38:56.494Z,13.48
2023-04-08T08:41:23.231Z,14.73
2023-04-08T08:43:50.132Z,15.48
2023-04-08T08:46:18.951Z,14.57
2023-04-08T08:48:46.099Z,15.32
2023-04-08T08:51:13.519Z,16.30
2023-04-08T08:53:45.424Z,14.30
2023-04-08T08:58:42.000Z,13.13
2023-04-08T09:01:37.896Z,13.25
2023-04-08T09:04:09.687Z,13.55
2023-04-08T09:06:37.677Z,11.65
2023-04-08T09:09:10.479Z,13.35
2023-04-08T09:11:40.539Z,11.02
2023-04-08T09:14:27.392Z,11.98
2023-04-08T09:19:20.751Z,12.05
2023-04-08T09:22:05.846Z,12.25
2023-04-08T09:24:32.494Z,11.88
2023-04-08T09:26:59.083Z,11.18
2023-04-08T09:29:27.592Z,12.05
2023-04-08T09:31:56.564Z,12.45
2023-04-08T09:34:24.128Z,15.70
2023-04-08T09:36:51.709Z,13.73
2023-04-08T09:39:18.897Z,13.82
2023-04-08T09:41:48.844Z,13.07
2023-04-08T09:44:19.417Z,12.35
2023-04-08T09:47:20.132Z,12.60
2023-04-08T09:49:53.911Z,13.07
2023-04-08T09:52:34.288Z,13.73
2023-04-08T09:55:08.619Z,13.98
2023-04-08T09:57:43.718Z,13.57
2023-04-08T10:00:15.469Z,15.38
2023-04-08T10:03:11.042Z,14.50
2023-04-08T10:05:40.761Z,14.88
2023-04-08T10:08:07.914Z,14.15
2023-04-08T10:10:37.152Z,14.45
2023-04-08T10:13:04.841Z,15.02
2023-04-08T10:15:33.018Z,15.10
2023-04-08T10:18:06.279Z,15.55
2023-04-08T10:20:36.062Z,16.58
2023-04-08T10:23:04.401Z,15.55
2023-04-08T10:25:33.193Z,14.32
2023-04-08T10:28:01.653Z,15.32
2023-04-08T10:30:28.262Z,15.23
2023-04-08T10:32:59.989Z,14.57
2023-04-08T10:35:31.429Z,16.42
2023-04-08T10:37:59.107Z,16.05
2023-04-08T10:40:26.013Z,15.90
2023-04-08T10:42:56.713Z,16.75
2023-04-08T10:45:24.095Z,17.40
2023-04-08T10:47:51.373Z,17.00
2023-04-08T10:50:20.142Z,17.17
2023-04-08T10:52:50.986Z,14.45
2023-04-08T10:55:26.618Z,15.15
2023-04-08T10:57:54.913Z,16.83
2023-04-08T11:00:40.114Z,16.83
2023-04-08T11:03:09.332Z,15.70
2023-04-08T11:05:37.353Z,17.75
2023-04-08T11:08:07.230Z,17.48
2023-04-08T11:10:41.445Z,17.35
2023-04-08T11:13:09.879Z,18.38
2023-04-08T11:15:37.422Z,19.40
2023-04-08T11:18:05.585Z,18.35
2023-04-08T11:20:36.130Z,18.80
2023-04-08T11:23:03.631Z,16.58
2023-04-08T11:25:30.552Z,16.80
2023-04-08T11:27:57.336Z,17.40
2023-04-08T11:30:24.471Z,17.48
2023-04-08T11:32:52.254Z,17.83
2023-04-08T11:35:20.481Z,15.73
2023-04-08T11:37:47.874Z,16.42
2023-04-08T11:40:21.052Z,17.77
2023-04-08T11:42:48.245Z,16.90
2023-04-08T11:45:16.501Z,14.15
2023-04-08T11:47:43.668Z,13.38
2023-04-08T11:50:10.517Z,14.63
2023-04-08T11:52:44.206Z,15.82
2023-04-08T11:55:26.100Z,14.57
2023-04-08T11:57:53.783Z,16.35
2023-04-08T12:00:22.190Z,15.55
2023-04-08T12:02:49.805Z,14.98
2023-04-08T12:05:16.903Z,15.98
2023-04-08T12:07:44.075Z,15.52
2023-04-08T12:10:11.764Z,15.70
2023-04-08T12:12:39.063Z,15.40
2023-04-08T12:15:06.617Z,16.00
2023-04-08T12:17:33.285Z,16.08
2023-04-08T12:20:00.052Z,17.55
2023-04-08T12:22:26.982Z,16.42
2023-04-08T12:24:53.578Z,15.52
2023-04-08T12:27:20.276Z,15.40
2023-04-08T12:29:46.988Z,14.85
2023-04-08T12:32:15.014Z,14.82
2023-04-08T12:34:41.706Z,14.82
2023-04-08T12:37:08.340Z,14.00
2023-04-08T12:39:34.935Z,13.88
2023-04-08T12:42:01.511Z,13.50
2023-04-08T12:44:28.150Z,13.23
2023-04-08T12:46:55.032Z,14.20
2023-04-08T12:49:22.017Z,14.75
2023-04-08T12:51:49.229Z,14.48
2023-04-08T12:54:15.942Z,14.50
2023-04-08T12:56:43.359Z,13.13
2023-04-08T12:59:10.011Z,13.20
2023-04-08T13:01:37.051Z,14.55
2023-04-08T13:04:04.064Z,13.10
2023-04-08T13:06:32.073Z,12.82
2023-04-08T13:08:58.718Z,12.25
2023-04-08T13:11:25.410Z,13.68
2023-04-08T13:13:52.192Z,12.68
2023-04-08T13:16:19.380Z,12.10
2023-04-08T13:18:46.926Z,13.90
2023-04-08T13:21:13.557Z,12.18
2023-04-08T13:23:40.246Z,12.95
2023-04-08T13:26:06.829Z,12.25
2023-04-08T13:28:38.669Z,12.73
2023-04-08T13:31:10.443Z,14.32
2023-04-08T13:33:37.804Z,12.52
2023-04-08T13:36:04.746Z,10.98
2023-04-08T13:38:31.560Z,11.13
2023-04-08T13:40:58.129Z,10.98
2023-04-08T13:43:24.726Z,10.38
2023-04-08T13:45:51.383Z,10.18
2023-04-08T13:48:18.014Z,9.35
2023-04-08T13:50:44.845Z,10.25
2023-04-08T13:53:11.797Z,10.50
2023-04-08T13:55:38.416Z,9.75
2023-04-08T13:58:11.230Z,9.35
2023-04-08T14:00:44.018Z,9.45
2023-04-08T14:03:10.676Z,8.30
2023-04-08T14:05:37.372Z,6.40
2023-04-08T14:08:03.984Z,6.40
2023-04-08T14:10:30.723Z,6.00
2023-04-08T14:12:57.730Z,5.25
2023-04-08T14:15:24.345Z,5.40
2023-04-08T14:17:51.739Z,5.22
2023-04-08T14:20:18.445Z,4.90
2023-04-08T14:22:45.869Z,4.90
2023-04-08T14:25:12.491Z,5.63
2023-04-08T14:27:51.012Z,5.20
2023-04-08T14:30:23.805Z,4.95
2023-04-08T14:32:50.430Z,4.82
2023-04-08T14:35:17.094Z,5.32
2023-04-08T14:37:43.758Z,4.95
2023-04-08T14:40:10.999Z,5.60
2023-04-08T14:42:37.790Z,5.72
2023-04-08T14:45:04.711Z,5.72
2023-04-08T14:47:31.634Z,6.45
2023-04-08T14:49:58.387Z,5.95
2023-04-08T14:52:25.167Z,6.40
2023-04-08T14:54:52.505Z,14.52
2023-04-08T14:57:20.087Z,15.40
2023-04-08T14:59:46.734Z,11.48
2023-04-08T15:02:13.500Z,10.52
2023-04-08T15:04:40.388Z,10.30
2023-04-08T15:07:07.547Z,9.52
2023-04-08T15:09:34.200Z,10.43
2023-04-08T15:12:01.347Z,15.20
2023-04-08T15:14:28.073Z,8.73
2023-04-08T15:16:54.676Z,7.05
2023-04-08T15:19:21.341Z,6.18
2023-04-08T15:21:47.908Z,5.82
2023-04-08T15:24:14.948Z,6.75
2023-04-08T15:26:41.773Z,6.05
2023-04-08T15:29:08.490Z,7.22
2023-04-08T15:31:35.332Z,7.03
2023-04-08T15:34:05.097Z,6.68
2023-04-08T15:36:32.198Z,7.10
2023-04-08T15:38:58.838Z,6.78
2023-04-08T15:41:26.251Z,6.70
2023-04-08T15:43:53.296Z,6.90
2023-04-08T15:46:21.218Z,6.15
2023-04-08T15:48:49.160Z,6.50
2023-04-08T15:51:16.964Z,8.00
2023-04-08T15:53:44.116Z,7.28
2023-04-08T15:56:15.033Z,6.80
2023-04-08T15:58:42.429Z,7.47
2023-04-08T16:01:09.129Z,7.45
2023-04-08T16:03:36.118Z,7.72
2023-04-08T16:06:03.037Z,8.20
2023-04-08T16:08:32.116Z,8.27
2023-04-08T16:11:03.666Z,8.00
2023-04-08T16:13:30.890Z,8.10
2023-04-08T16:15:58.745Z,8.60
2023-04-08T16:18:26.061Z,11.13
2023-04-08T16:20:53.049Z,10.57
2023-04-08T16:23:20.009Z,10.80
2023-04-08T16:25:47.110Z,9.63
2023-04-08T16:28:13.803Z,8.82
2023-04-08T16:30:43.842Z,9.70
2023-04-08T16:33:11.417Z,9.13
2023-04-08T16:35:38.653Z,8.27
2023-04-08T16:38:06.231Z,10.52
2023-04-08T16:40:33.645Z,10.20
2023-04-08T16:43:01.150Z,9.20
2023-04-08T16:45:31.287Z,9.23
2023-04-08T16:47:58.211Z,10.10
2023-04-08T16:50:25.188Z,9.52
2023-04-08T16:52:52.545Z,9.50
2023-04-08T16:55:19.629Z,9.10
2023-04-08T16:57:46.671Z,9.70
2023-04-08T17:00:13.784Z,9.93
2023-04-08T17:02:40.509Z,10.90
2023-04-08T17:05:07.839Z,11.05
2023-04-08T17:07:34.621Z,10.70
2023-04-08T17:10:01.313Z,12.48
2023-04-08T17:12:28.027Z,13.32
2023-04-08T17:14:54.835Z,12.75
2023-04-08T17:17:21.637Z,9.75
2023-04-08T17:19:48.535Z,8.30
2023-04-08T17:22:15.326Z,8.02
2023-04-08T17:24:42.094Z,9.05
2023-04-08T17:27:08.744Z,9.52
2023-04-08T17:29:35.767Z,8.95
2023-04-08T17:32:02.628Z,8.75
2023-04-08T17:34:31.326Z,9.48
2023-04-08T17:36:58.015Z,8.00
2023-04-08T17:39:24.914Z,7.80
2023-04-08T17:41:51.619Z,8.80
2023-04-08T17:44:18.216Z,7.97
2023-04-08T17:46:44.814Z,7.30
2023-04-08T17:49:12.844Z,7.30
2023-04-08T17:51:39.501Z,8.07
2023-04-08T17:54:06.157Z,7.90
2023-04-08T17:56:33.424Z,7.40
2023-04-08T17:59:00.402Z,7.97
2023-04-08T18:01:27.307Z,7.88
2023-04-08T18:03:54.382Z,8.50
2023-04-08T18:06:21.305Z,7.78
2023-04-08T18:08:48.013Z,8.88
2023-04-08T18:11:14.911Z,8.35
2023-04-08T18:13:41.562Z,7.68
2023-04-08T18:16:17.272Z,8.35
2023-04-08T18:18:44.338Z,9.23
2023-04-08T18:21:10.954Z,8.55
2023-04-08T18:23:40.630Z,9.23
2023-04-08T18:26:07.506Z,9.23
2023-04-08T18:28:34.209Z,8.85
2023-04-08T18:31:00.917Z,8.45
2023-04-08T18:33:28.181Z,8.98
2023-04-08T18:35:56.129Z,8.88
2023-04-08T18:38:24.271Z,8.75
2023-04-08T18:40:51.278Z,8.77
2023-04-08T18:43:17.828Z,8.65
2023-04-08T18:45:44.437Z,8.85
2023-04-08T18:48:12.360Z,8.98
2023-04-08T18:50:39.014Z,7.90
2023-04-08T18:53:05.687Z,7.68
2023-04-08T18:55:35.939Z,8.48
2023-04-08T18:58:02.602Z,8.93
2023-04-08T19:00:29.233Z,8.60
2023-04-08T19:02:56.648Z,8.32
2023-04-08T19:05:23.349Z,8.48
2023-04-08T19:07:50.057Z,8.02
2023-04-08T19:10:16.715Z,8.38
2023-04-08T19:12:43.373Z,8.57
2023-04-08T19:15:11.200Z,8.60
2023-04-08T19:17:37.806Z,8.65
2023-04-08T19:20:04.841Z,9.07
2023-04-08T19:22:32.061Z,9.25
2023-04-08T19:24:58.739Z,8.60
2023-04-08T19:27:25.363Z,9.35
2023-04-08T19:29:52.159Z,9.25
2023-04-08T19:32:19.060Z,8.93
2023-04-08T19:34:45.854Z,8.63
2023-04-08T19:37:12.496Z,8.95
2023-04-08T19:39:39.100Z,10.20
2023-04-08T19:42:05.703Z,9.50
2023-04-08T19:44:32.378Z,9.48
2023-04-08T19:46:59.682Z,9.63
2023-04-08T19:49:26.544Z,9.38
2023-04-08T19:51:53.183Z,9.13
2023-04-08T19:54:19.786Z,10.13
2023-04-08T19:56:47.406Z,9.23
2023-04-08T19:59:13.973Z,9.32
2023-04-08T20:01:41.118Z,10.75
2023-04-08T20:04:07.929Z,9.70
2023-04-08T20:06:34.836Z,11.48
2023-04-08T20:09:05.604Z,11.63
2023-04-08T20:11:35.251Z,10.93
2023-04-08T20:14:03.589Z,10.43
2023-04-08T20:16:30.231Z,11.50
2023-04-08T20:18:56.825Z,10.15
2023-04-08T20:21:23.449Z,10.27
2023-04-08T20:23:50.064Z,9.60
2023-04-08T20:26:16.819Z,10.27
2023-04-08T20:28:45.076Z,11.00
2023-04-08T20:31:11.830Z,10.70
2023-04-08T20:33:43.544Z,10.35
2023-04-08T20:36:12.441Z,11.02
2023-04-08T20:38:40.499Z,11.23
2023-04-08T20:41:07.137Z,11.25
2023-04-08T20:43:34.039Z,11.88
2023-04-08T20:46:01.119Z,10.70
2023-04-08T20:48:29.395Z,12.10
2023-04-08T20:50:56.305Z,11.23
2023-04-08T20:53:23.710Z,11.48
2023-04-08T20:55:50.389Z,11.82
2023-04-08T20:58:18.228Z,13.00
2023-04-08T21:00:47.435Z,11.88
2023-04-08T21:03:14.604Z,12.98
2023-04-08T21:05:41.903Z,13.32
2023-04-08T21:08:08.917Z,12.05
2023-04-08T21:10:35.788Z,11.95
2023-04-08T21:13:02.364Z,12.55
2023-04-08T21:15:29.070Z,11.95
2023-04-08T21:17:56.034Z,12.50
2023-04-08T21:20:23.131Z,12.68
2023-04-08T21:22:49.990Z,11.77
2023-04-08T21:25:18.009Z,11.85
2023-04-08T21:27:44.779Z,12.05
2023-04-08T21:30:11.579Z,11.50
2023-04-08T21:32:38.810Z,12.13
2023-04-08T21:35:05.702Z,11.63
2023-04-08T21:37:32.304Z,12.43
2023-04-08T21:39:58.931Z,12.20
2023-04-08T21:42:26.321Z,12.52
2023-04-08T21:44:53.499Z,12.30
2023-04-08T21:47:20.106Z,12.10
2023-04-08T21:49:46.728Z,12.05
2023-04-08T21:52:13.663Z,11.75
2023-04-08T21:54:40.395Z,11.93
2023-04-08T21:57:07.049Z,12.05
2023-04-08T21:59:33.730Z,12.07
2023-04-08T22:02:00.551Z,12.27
2023-04-08T22:04:27.792Z,12.35
2023-04-08T22:06:54.604Z,12.25
2023-04-08T22:09:21.716Z,11.45
2023-04-08T22:11:49.461Z,12.57
2023-04-08T22:14:17.497Z,11.93
2023-04-08T22:16:44.781Z,12.32
2023-04-08T22:19:11.649Z,12.20
2023-04-08T22:21:38.238Z,12.18
2023-04-08T22:24:05.276Z,12.10
2023-04-08T22:26:32.086Z,11.60
2023-04-08T22:28:58.790Z,11.73
2023-04-08T22:31:25.672Z,11.68
2023-04-08T22:33:52.622Z,12.00
2023-04-08T22:36:19.285Z,12.15
2023-04-08T22:38:46.500Z,11.65
2023-04-08T22:41:18.019Z,10.77
2023-04-08T22:43:44.683Z,11.85
2023-04-08T22:46:11.765Z,11.35
2023-04-08T22:48:38.549Z,11.80
2023-04-08T22:51:05.438Z,12.18
2023-04-08T22:53:32.107Z,12.10
2023-04-08T22:55:58.777Z,11.45
2023-04-08T22:58:25.402Z,12.95
2023-04-08T23:00:52.071Z,13.65
2023-04-08T23:03:18.817Z,12.38
2023-04-08T23:05:45.508Z,11.60
2023-04-08T23:08:12.125Z,12.30
2023-04-08T23:10:38.755Z,12.52
2023-04-08T23:13:05.440Z,12.60
2023-04-08T23:15:32.068Z,11.23
2023-04-08T23:17:58.761Z,11.52
2023-04-08T23:20:25.518Z,12.68
2023-04-08T23:22:52.173Z,11.63
2023-04-08T23:25:18.886Z,12.20
2023-04-08T23:27:45.962Z,12.30
2023-04-08T23:30:12.642Z,13.45
2023-04-08T23:32:39.350Z,12.27
2023-04-08T23:35:08.083Z,12.57
2023-04-08T23:37:34.682Z,13.45
2023-04-08T23:40:01.312Z,11.82
2023-04-08T23:42:27.995Z,12.75
2023-04-08T23:44:55.340Z,14.57
2023-04-08T23:47:22.151Z,13.32
2023-04-08T23:49:48.906Z,13.40
2023-04-08T23:52:15.848Z,12.93
2023-04-08T23:54:42.444Z,13.43
2023-04-08T23:57:09.089Z,13.20
2023-04-08T23:59:35.803Z,13.13
